Time;durP1;ratioP1;P1;durP2;ratioP2;P2;SDS_P1;SDS_P2;PMS_P1;PMS_P2;Temp;Humidity;BMP_temperature;BMP_pressure;BME280_temperature;BME280_humidity;BME280_pressure;Samples;Min_cycle;Max_cycle;Signal;HPM_P1;HPM_P2
2023/04/27 00:00:20;;;;;;;9.07;6.50;;;4.30;99.90;;;;;;5087082;28;20475;-72
2023/04/27 00:02:46;;;;;;;9.65;6.82;;;4.20;99.90;;;;;;5084281;28;20123;-72
2023/04/27 00:05:12;;;;;;;10.55;7.15;;;4.20;99.90;;;;;;5080384;28;20143;-72
2023/04/27 00:07:38;;;;;;;10.57;6.97;;;4.10;99.90;;;;;;5087568;28;20390;-72
2023/04/27 00:10:05;;;;;;;11.15;7.20;;;4.10;99.90;;;;;;5087152;28;20036;-72
2023/04/27 00:12:31;;;;;;;12.13;7.85;;;4.00;99.90;;;;;;5084722;28;20570;-72
2023/04/27 00:14:57;;;;;;;11.43;7.18;;;4.00;99.90;;;;;;5086167;28;20097;-72
2023/04/27 00:17:22;;;;;;;10.90;6.80;;;4.00;99.90;;;;;;5087476;28;20083;-72
2023/04/27 00:19:48;;;;;;;11.88;7.30;;;4.00;99.90;;;;;;5085376;28;20047;-72
2023/04/27 00:22:14;;;;;;;13.32;7.80;;;4.00;99.90;;;;;;5087578;28;20059;-72
2023/04/27 00:24:40;;;;;;;9.80;7.72;;;3.90;99.90;;;;;;5078933;28;20036;-72
2023/04/27 00:27:06;;;;;;;10.43;7.55;;;4.00;99.90;;;;;;5082000;28;20083;-72
2023/04/27 00:29:32;;;;;;;11.60;7.97;;;3.90;99.90;;;;;;5086265;28;20078;-72
2023/04/27 00:31:58;;;;;;;13.82;7.50;;;3.90;99.90;;;;;;5086046;28;20040;-72
2023/04/27 00:34:23;;;;;;;13.10;8.00;;;3.90;99.90;;;;;;5083156;28;20127;-72
2023/04/27 00:36:49;;;;;;;12.00;7.80;;;3.80;99.90;;;;;;5084319;28;20032;-72
2023/04/27 00:39:15;;;;;;;11.93;8.05;;;3.80;99.90;;;;;;5082893;28;20655;-72
2023/04/27 00:41:41;;;;;;;12.02;8.25;;;3.80;99.90;;;;;;5082131;28;20615;-72
2023/04/27 00:44:07;;;;;;;12.02;8.48;;;3.80;99.90;;;;;;5086303;28;20118;-72
2023/04/27 00:46:33;;;;;;;15.27;8.38;;;3.90;99.90;;;;;;5099899;28;20502;-72
2023/04/27 00:48:59;;;;;;;13.38;8.75;;;3.80;99.90;;;;;;5067483;28;20040;-72
2023/04/27 00:51:27;;;;;;;13.32;8.77;;;3.80;99.90;;;;;;5087728;28;20048;-72
2023/04/27 00:53:53;;;;;;;15.13;8.43;;;3.70;99.90;;;;;;5090435;28;20036;-72
2023/04/27 00:56:19;;;;;;;12.52;8.63;;;3.70;99.90;;;;;;5082215;28;20048;-71
2023/04/27 00:58:44;;;;;;;11.15;8.65;;;3.70;99.90;;;;;;5073329;28;20147;-71
2023/04/27 01:01:11;;;;;;;10.18;8.02;;;3.60;99.90;;;;;;5083441;28;20524;-72
2023/04/27 01:03:37;;;;;;;13.20;8.70;;;3.60;99.90;;;;;;5084573;28;20100;-72
2023/04/27 01:06:03;;;;;;;11.25;8.52;;;3.60;99.90;;;;;;5086125;28;20036;-72
2023/04/27 01:08:28;;;;;;;12.80;8.77;;;3.60;99.90;;;;;;5084143;28;20035;-72
2023/04/27 01:10:54;;;;;;;12.00;8.80;;;3.60;99.90;;;;;;5076148;28;20039;-72
2023/04/27 01:13:21;;;;;;;12.43;8.85;;;3.60;99.90;;;;;;5085689;28;20073;-73
2023/04/27 01:15:46;;;;;;;12.73;8.65;;;3.60;99.90;;;;;;5085049;28;20513;-73
2023/04/27 01:18:12;;;;;;;14.55;9.57;;;3.50;99.90;;;;;;5080514;28;20052;-73
2023/04/27 01:20:38;;;;;;;16.35;9.35;;;3.50;99.90;;;;;;5084175;28;20090;-73
2023/04/27 01:23:04;;;;;;;16.15;9.70;;;3.50;99.90;;;;;;5085433;28;20745;-73
2023/04/27 01:25:29;;;;;;;14.77;11.35;;;3.40;99.90;;;;;;5078788;28;20048;-73
2023/04/27 01:27:55;;;;;;;19.70;10.90;;;3.40;99.90;;;;;;5080682;28;20167;-73
2023/04/27 01:30:21;;;;;;;16.70;10.95;;;3.40;99.90;;;;;;5086586;28;20040;-73
2023/04/27 01:32:48;;;;;;;15.40;11.23;;;3.40;99.90;;;;;;5082057;28;20036;-72
2023/04/27 01:35:14;;;;;;;18.23;11.35;;;3.40;99.90;;;;;;5083296;28;20036;-73
2023/04/27 01:37:40;;;;;;;17.85;11.80;;;3.40;99.90;;;;;;5071578;28;20675;-73
2023/04/27 01:40:06;;;;;;;18.10;12.02;;;3.40;99.90;;;;;;5087529;28;20107;-76
2023/04/27 01:42:32;;;;;;;15.52;11.57;;;3.40;99.90;;;;;;5085834;28;20047;-72
2023/04/27 01:44:59;;;;;;;16.80;11.63;;;3.40;99.90;;;;;;5084449;28;20032;-72
2023/04/27 01:47:25;;;;;;;16.08;10.45;;;3.30;99.90;;;;;;5083913;28;20040;-72
2023/04/27 01:49:51;;;;;;;17.70;10.82;;;3.30;99.90;;;;;;5084763;28;20096;-72
2023/04/27 01:52:17;;;;;;;15.65;10.32;;;3.30;99.90;;;;;;5084324;28;20036;-72
2023/04/27 01:54:42;;;;;;;14.93;10.63;;;3.30;99.90;;;;;;5085092;28;20089;-72
2023/04/27 01:57:08;;;;;;;16.23;10.75;;;3.30;99.90;;;;;;5081846;28;20056;-72
2023/04/27 01:59:34;;;;;;;13.90;10.77;;;3.30;99.90;;;;;;5082760;28;20040;-72
2023/04/27 02:02:03;;;;;;;13.68;10.20;;;3.30;99.90;;;;;;5083097;28;20040;-72
2023/04/27 02:04:31;;;;;;;14.82;11.00;;;3.20;99.90;;;;;;5083594;28;20467;-73
2023/04/27 02:06:57;;;;;;;14.50;10.43;;;3.20;99.90;;;;;;5081279;28;20032;-73
2023/04/27 02:09:23;;;;;;;16.92;10.73;;;3.20;99.90;;;;;;5083710;28;20081;-72
2023/04/27 02:11:49;;;;;;;16.83;11.45;;;3.20;99.90;;;;;;5080728;28;20051;-73
2023/04/27 02:14:15;;;;;;;15.18;10.30;;;3.20;99.90;;;;;;5081511;28;20044;-73
2023/04/27 02:16:40;;;;;;;14.88;10.98;;;3.10;99.90;;;;;;5106007;22;20046;-73
2023/04/27 02:19:06;;;;;;;16.30;10.98;;;3.10;99.90;;;;;;5086204;28;20036;-73
2023/04/27 02:21:32;;;;;;;16.05;10.85;;;3.10;99.90;;;;;;5082013;28;20752;-73
2023/04/27 02:23:57;;;;;;;14.68;11.05;;;3.10;99.90;;;;;;5090412;28;20058;-73
2023/04/27 02:26:28;;;;;;;16.50;11.02;;;3.10;99.90;;;;;;5076488;28;20094;-73
2023/04/27 02:28:54;;;;;;;17.83;10.70;;;3.10;99.90;;;;;;5081328;28;20040;-73
2023/04/27 02:31:19;;;;;;;15.38;9.98;;;3.10;99.90;;;;;;5083914;28;20032;-73
2023/04/27 02:33:45;;;;;;;16.08;9.95;;;3.00;99.90;;;;;;5085672;28;20050;-73
2023/04/27 02:36:11;;;;;;;15.20;10.02;;;3.10;99.90;;;;;;5089082;28;20047;-73
2023/04/27 02:38:36;;;;;;;15.35;9.88;;;3.10;99.90;;;;;;5090417;28;20036;-73
2023/04/27 02:41:02;;;;;;;19.15;10.40;;;3.10;99.90;;;;;;5081428;28;20510;-73
2023/04/27 02:43:27;;;;;;;13.88;9.82;;;3.10;99.90;;;;;;5088750;28;20123;-73
2023/04/27 02:45:53;;;;;;;13.90;9.60;;;3.00;99.90;;;;;;5084378;28;20505;-73
2023/04/27 02:48:19;;;;;;;16.40;9.43;;;3.00;99.90;;;;;;5083736;28;20059;-73
2023/04/27 02:50:45;;;;;;;12.82;8.55;;;3.00;99.90;;;;;;5079674;28;20032;-72
2023/04/27 02:53:11;;;;;;;13.50;9.20;;;3.00;99.90;;;;;;5083715;28;20054;-72
2023/04/27 02:55:38;;;;;;;14.80;9.05;;;3.00;99.90;;;;;;5084339;28;20036;-72
2023/04/27 02:58:03;;;;;;;13.60;8.60;;;3.00;99.90;;;;;;5075051;28;20047;-73
2023/04/27 03:00:29;;;;;;;12.32;8.57;;;2.90;99.90;;;;;;5086050;28;20036;-72
2023/04/27 03:02:55;;;;;;;13.85;9.20;;;3.00;99.90;;;;;;5075904;28;20043;-73
2023/04/27 03:05:21;;;;;;;14.07;8.63;;;2.90;99.90;;;;;;5081143;28;20044;-72
2023/04/27 03:07:47;;;;;;;13.82;9.10;;;2.90;99.90;;;;;;5086136;28;20051;-72
2023/04/27 03:10:13;;;;;;;13.80;8.60;;;2.80;99.90;;;;;;5073928;28;20044;-72
2023/04/27 03:12:38;;;;;;;12.73;8.93;;;2.80;99.90;;;;;;5088934;28;20059;-72
2023/04/27 03:15:04;;;;;;;12.93;8.65;;;2.80;99.90;;;;;;5267730;22;20047;-72
2023/04/27 03:17:30;;;;;;;14.23;9.18;;;2.80;99.90;;;;;;5067466;28;20048;-72
2023/04/27 03:19:59;;;;;;;13.52;8.98;;;2.80;99.90;;;;;;5063259;28;21006;-72
2023/04/27 03:22:25;;;;;;;13.80;8.85;;;2.70;99.90;;;;;;5067114;28;20071;-72
2023/04/27 03:24:51;;;;;;;13.38;8.65;;;2.70;99.90;;;;;;5071783;28;20044;-73
2023/04/27 03:27:16;;;;;;;11.85;8.90;;;2.80;99.90;;;;;;5068916;28;20055;-73
2023/04/27 03:29:42;;;;;;;13.90;8.07;;;2.80;99.90;;;;;;5062425;28;20043;-73
2023/04/27 03:32:08;;;;;;;13.45;8.48;;;2.70;99.90;;;;;;5066744;28;20097;-73
2023/04/27 03:34:37;;;;;;;16.00;8.98;;;2.70;99.90;;;;;;5062478;28;20119;-73
2023/04/27 03:37:02;;;;;;;12.00;8.60;;;2.70;99.90;;;;;;5066357;28;20047;-73
2023/04/27 03:39:28;;;;;;;14.70;9.05;;;2.60;99.90;;;;;;5060600;28;20040;-72
2023/04/27 03:41:53;;;;;;;10.77;8.38;;;2.60;99.90;;;;;;5069219;28;20050;-73
2023/04/27 03:44:19;;;;;;;12.65;9.20;;;2.60;99.90;;;;;;5064248;28;20137;-73
2023/04/27 03:46:45;;;;;;;15.80;9.70;;;2.60;99.90;;;;;;5065376;28;20678;-73
2023/04/27 03:49:10;;;;;;;12.13;9.43;;;2.50;99.90;;;;;;5066155;28;20041;-72
2023/04/27 03:51:38;;;;;;;13.18;9.30;;;2.50;99.90;;;;;;5064224;28;20095;-73
2023/04/27 03:54:04;;;;;;;16.30;9.80;;;2.50;99.90;;;;;;5064831;28;20655;-73
2023/04/27 03:56:30;;;;;;;12.75;9.10;;;2.50;99.90;;;;;;5067819;28;20051;-73
2023/04/27 03:58:55;;;;;;;13.45;9.15;;;2.50;99.90;;;;;;5064924;28;20098;-73
2023/04/27 04:01:21;;;;;;;12.60;8.82;;;2.50;99.90;;;;;;5061351;28;20369;-73
2023/04/27 04:03:46;;;;;;;13.93;9.32;;;2.50;99.90;;;;;;5064686;28;20116;-73
2023/04/27 04:06:12;;;;;;;13.13;9.60;;;2.50;99.90;;;;;;5069263;28;20055;-73
2023/04/27 04:08:38;;;;;;;12.90;8.48;;;2.40;99.90;;;;;;5070644;28;20372;-73
2023/04/27 04:11:03;;;;;;;16.45;9.55;;;2.40;99.90;;;;;;5064606;28;20668;-73
2023/04/27 04:13:29;;;;;;;13.80;9.30;;;2.40;99.90;;;;;;5066448;28;20954;-73
2023/04/27 04:16:01;;;;;;;14.85;9.43;;;2.40;99.90;;;;;;5068904;28;20124;-72
2023/04/27 04:18:26;;;;;;;15.02;10.02;;;2.40;99.90;;;;;;5066333;28;20787;-73
2023/04/27 04:20:52;;;;;;;20.10;9.07;;;2.30;99.90;;;;;;5064591;28;20041;-73
2023/04/27 04:23:18;;;;;;;14.95;9.70;;;2.30;99.90;;;;;;5063213;28;20045;-73
2023/04/27 04:25:46;;;;;;;13.02;9.23;;;2.30;99.90;;;;;;5062199;28;20045;-72
2023/04/27 04:28:12;;;;;;;14.68;9.23;;;2.40;99.90;;;;;;5063613;28;20044;-73
2023/04/27 04:30:38;;;;;;;18.10;9.68;;;2.30;99.90;;;;;;5053030;28;20045;-73
2023/04/27 04:33:04;;;;;;;12.07;8.80;;;2.40;99.90;;;;;;5066645;28;20043;-73
2023/04/27 04:35:31;;;;;;;16.33;9.88;;;2.40;99.90;;;;;;5060347;28;20568;-73
2023/04/27 04:37:58;;;;;;;13.25;9.30;;;2.40;99.90;;;;;;5067180;28;20064;-73
2023/04/27 04:40:24;;;;;;;16.60;9.45;;;2.40;99.90;;;;;;5065265;28;20071;-73
2023/04/27 04:42:50;;;;;;;13.07;9.65;;;2.40;99.90;;;;;;5056429;28;20053;-72
2023/04/27 04:45:15;;;;;;;20.02;10.57;;;2.40;99.90;;;;;;5064449;28;20029;-72
2023/04/27 04:47:41;;;;;;;20.50;11.00;;;2.40;99.90;;;;;;5068942;28;20102;-73
2023/04/27 04:50:10;;;;;;;21.00;11.32;;;2.40;99.90;;;;;;5063686;28;20036;-73
2023/04/27 04:52:36;;;;;;;18.75;11.07;;;2.50;99.90;;;;;;5066213;28;20053;-73
2023/04/27 04:55:02;;;;;;;20.60;11.07;;;2.70;99.90;;;;;;5047087;28;20033;-73
2023/04/27 04:57:29;;;;;;;16.80;11.23;;;2.70;99.90;;;;;;5063396;28;20032;-73
2023/04/27 04:59:55;;;;;;;17.37;11.50;;;2.80;99.90;;;;;;5059710;28;20640;-73
2023/04/27 05:02:21;;;;;;;15.23;10.07;;;2.80;99.90;;;;;;5060411;28;20317;-73
2023/04/27 05:04:46;;;;;;;17.83;10.57;;;2.80;99.90;;;;;;5056206;28;20050;-73
2023/04/27 05:07:12;;;;;;;20.15;11.85;;;2.90;99.90;;;;;;5064684;28;20040;-73
2023/04/27 05:09:38;;;;;;;16.08;11.38;;;2.90;99.90;;;;;;5062392;28;20434;-73
2023/04/27 05:12:04;;;;;;;17.52;11.25;;;2.90;99.90;;;;;;5064319;28;20045;-73
2023/04/27 05:14:30;;;;;;;20.77;12.10;;;2.90;99.90;;;;;;5064792;28;20045;-73
2023/04/27 05:16:55;;;;;;;21.35;13.02;;;3.00;99.90;;;;;;5071409;28;20100;-73
2023/04/27 05:19:21;;;;;;;20.38;11.73;;;3.00;99.90;;;;;;5066802;28;20052;-73
2023/04/27 05:21:47;;;;;;;17.90;12.05;;;3.00;99.90;;;;;;5060130;28;20032;-73
2023/04/27 05:24:12;;;;;;;21.48;11.63;;;3.10;99.90;;;;;;5063151;28;20033;-73
2023/04/27 05:26:38;;;;;;;17.98;12.32;;;3.10;99.90;;;;;;5063914;28;20144;-73
2023/04/27 05:29:04;;;;;;;16.35;11.48;;;3.30;99.90;;;;;;5065250;28;20043;-73
2023/04/27 05:31:32;;;;;;;15.82;11.18;;;3.30;99.90;;;;;;5057768;28;20041;-73
2023/04/27 05:33:58;;;;;;;17.25;11.18;;;3.40;99.90;;;;;;5060455;28;20040;-71
2023/04/27 05:36:24;;;;;;;13.27;10.10;;;3.50;99.90;;;;;;5064518;28;20373;-70
2023/04/27 05:38:50;;;;;;;14.98;10.98;;;3.50;99.90;;;;;;5061416;28;20114;-71
2023/04/27 05:41:16;;;;;;;16.88;11.00;;;3.60;99.90;;;;;;5058883;28;20048;-71
2023/04/27 05:43:41;;;;;;;19.35;12.38;;;3.70;99.90;;;;;;5061062;28;20495;-71
2023/04/27 05:46:07;;;;;;;15.18;10.43;;;3.80;99.90;;;;;;5065538;28;20044;-70
2023/04/27 05:48:33;;;;;;;16.23;10.50;;;3.80;99.90;;;;;;5063145;28;20651;-71
2023/04/27 05:51:00;;;;;;;16.77;10.93;;;3.90;99.90;;;;;;5059834;28;20040;-70
2023/04/27 05:53:26;;;;;;;15.90;10.77;;;4.00;99.90;;;;;;5057104;28;20051;-72
2023/04/27 05:55:52;;;;;;;16.17;11.18;;;4.00;99.90;;;;;;5062944;28;20116;-72
2023/04/27 05:58:18;;;;;;;14.00;11.15;;;4.20;99.90;;;;;;5067646;28;20044;-72
2023/04/27 06:00:44;;;;;;;15.27;10.70;;;4.30;99.90;;;;;;5064931;28;20056;-73
2023/04/27 06:03:09;;;;;;;18.98;11.25;;;4.30;99.90;;;;;;5064466;28;20043;-72
2023/04/27 06:05:35;;;;;;;14.82;11.27;;;4.40;99.90;;;;;;5061779;28;20404;-72
2023/04/27 06:08:01;;;;;;;15.13;11.30;;;4.60;99.90;;;;;;5061591;28;20453;-72
2023/04/27 06:10:27;;;;;;;15.95;10.63;;;4.60;99.90;;;;;;5063608;28;20037;-72
2023/04/27 06:12:53;;;;;;;14.77;10.73;;;4.70;99.90;;;;;;5066722;28;20687;-71
2023/04/27 06:15:19;;;;;;;15.43;10.68;;;4.80;99.90;;;;;;5080276;28;20496;-72
2023/04/27 06:17:45;;;;;;;12.38;9.30;;;4.80;99.90;;;;;;5069402;28;20079;-72
2023/04/27 06:20:11;;;;;;;13.43;9.98;;;4.90;99.90;;;;;;5066328;28;20536;-71
2023/04/27 06:22:37;;;;;;;15.15;9.98;;;5.00;99.90;;;;;;5065925;28;20059;-72
2023/04/27 06:25:04;;;;;;;14.48;9.60;;;5.10;99.90;;;;;;5064227;28;20393;-71
2023/04/27 06:27:30;;;;;;;15.30;10.30;;;5.20;99.90;;;;;;5067799;28;20048;-72
2023/04/27 06:29:55;;;;;;;15.50;11.13;;;5.20;99.90;;;;;;5066389;28;20367;-72
2023/04/27 06:32:21;;;;;;;15.52;10.27;;;5.30;99.90;;;;;;5066766;28;20123;-72
2023/04/27 06:34:46;;;;;;;15.10;9.70;;;5.30;99.90;;;;;;5065470;28;20126;-73
2023/04/27 06:37:16;;;;;;;15.25;9.25;;;5.50;99.90;;;;;;5064618;28;20128;-72
2023/04/27 06:39:43;;;;;;;14.55;10.40;;;5.50;99.90;;;;;;5070320;28;20048;-72
2023/04/27 06:42:09;;;;;;;14.50;9.13;;;5.70;99.90;;;;;;5069788;28;20752;-72
2023/04/27 06:44:35;;;;;;;11.98;8.20;;;5.80;99.90;;;;;;5069103;28;20174;-72
2023/04/27 06:47:04;;;;;;;14.20;8.90;;;5.90;99.90;;;;;;5073922;28;20076;-72
2023/04/27 06:49:30;;;;;;;12.27;9.18;;;6.00;99.90;;;;;;5066497;28;21303;-72
2023/04/27 06:51:56;;;;;;;12.55;8.52;;;6.20;99.90;;;;;;5071527;28;20096;-73
2023/04/27 06:54:22;;;;;;;12.98;8.70;;;6.20;99.90;;;;;;5057221;28;20040;-73
2023/04/27 06:56:47;;;;;;;16.17;8.70;;;6.30;99.90;;;;;;5063935;28;20059;-72
2023/04/27 06:59:13;;;;;;;11.75;8.15;;;6.40;99.90;;;;;;5063841;28;20048;-73
2023/04/27 07:01:39;;;;;;;12.65;7.80;;;6.50;99.90;;;;;;5070529;28;20044;-73
2023/04/27 07:04:07;;;;;;;16.13;8.82;;;6.50;99.90;;;;;;5067525;28;20152;-73
2023/04/27 07:06:33;;;;;;;14.82;8.75;;;6.60;99.90;;;;;;5069188;28;20036;-75
2023/04/27 07:08:58;;;;;;;12.10;7.90;;;6.70;99.90;;;;;;5065341;28;20173;-76
2023/04/27 07:11:25;;;;;;;16.25;8.43;;;6.80;99.90;;;;;;5059873;28;20131;-75
2023/04/27 07:13:50;;;;;;;14.52;8.90;;;6.90;99.90;;;;;;5059798;28;20048;-77
2023/04/27 07:16:16;;;;;;;11.35;6.70;;;6.90;99.90;;;;;;5064425;28;20051;-76
2023/04/27 07:18:42;;;;;;;10.23;6.90;;;7.10;99.90;;;;;;5070098;28;20054;-74
2023/04/27 07:21:08;;;;;;;15.32;7.13;;;7.10;99.90;;;;;;5074424;28;20415;-73
2023/04/27 07:23:33;;;;;;;10.82;6.85;;;7.20;99.90;;;;;;5069066;28;20087;-78
2023/04/27 07:25:59;;;;;;;12.18;6.55;;;7.30;99.90;;;;;;5068680;28;20086;-74
2023/04/27 07:28:27;;;;;;;11.20;6.88;;;7.40;99.90;;;;;;5066637;28;20048;-75
2023/04/27 07:30:57;;;;;;;10.52;6.53;;;7.50;99.90;;;;;;5068054;28;20396;-74
2023/04/27 07:33:25;;;;;;;9.45;6.22;;;7.60;99.90;;;;;;5067503;28;20040;-75
2023/04/27 07:35:52;;;;;;;9.65;5.38;;;7.70;99.90;;;;;;5068284;28;20119;-75
2023/04/27 07:38:18;;;;;;;9.48;5.53;;;7.70;99.90;;;;;;5076536;28;20648;-74
2023/04/27 07:40:45;;;;;;;8.75;4.57;;;7.80;99.90;;;;;;5064647;28;20109;-73
2023/04/27 07:43:11;;;;;;;10.60;5.05;;;7.80;99.90;;;;;;5062807;28;20050;-73
2023/04/27 07:45:38;;;;;;;8.90;5.10;;;8.00;99.90;;;;;;5067434;28;20127;-73
2023/04/27 07:48:06;;;;;;;9.45;4.85;;;8.00;99.90;;;;;;5067761;28;20052;-76
2023/04/27 07:50:32;;;;;;;7.05;4.28;;;8.10;99.90;;;;;;5068029;28;20094;-76
2023/04/27 07:52:58;;;;;;;6.82;4.40;;;8.20;99.90;;;;;;5069285;28;20041;-75
2023/04/27 07:55:24;;;;;;;8.18;4.95;;;8.30;99.90;;;;;;5069241;28;20557;-71
2023/04/27 07:57:55;;;;;;;8.07;5.13;;;8.40;99.90;;;;;;5066100;28;20135;-71
2023/04/27 08:00:27;;;;;;;8.38;5.57;;;8.40;99.90;;;;;;5063961;28;20037;-71
2023/04/27 08:02:53;;;;;;;8.82;5.22;;;8.50;99.90;;;;;;5066444;28;20124;-74
2023/04/27 08:05:22;;;;;;;6.47;5.22;;;8.60;99.90;;;;;;5062919;28;20036;-75
2023/04/27 08:07:47;;;;;;;10.60;5.10;;;8.60;99.90;;;;;;5059601;28;20059;-73
2023/04/27 08:10:14;;;;;;;9.98;4.63;;;8.70;99.90;;;;;;5064896;28;20036;-71
2023/04/27 08:12:40;;;;;;;7.40;4.70;;;8.80;99.90;;;;;;5066460;28;20079;-73
2023/04/27 08:15:06;;;;;;;8.57;4.45;;;8.90;99.90;;;;;;5067289;28;20252;-73
2023/04/27 08:17:32;;;;;;;10.25;3.72;;;9.00;99.90;;;;;;5065240;28;20033;-73
2023/04/27 08:19:58;;;;;;;8.75;4.10;;;9.00;99.90;;;;;;5064222;28;20032;-73
2023/04/27 08:22:23;;;;;;;5.93;4.05;;;9.20;99.90;;;;;;5071564;28;20037;-73
2023/04/27 08:24:49;;;;;;;7.75;4.07;;;9.10;99.90;;;;;;5068935;28;20040;-73
2023/04/27 08:27:15;;;;;;;6.88;4.07;;;9.20;99.90;;;;;;5066012;28;20044;-73
2023/04/27 08:29:47;;;;;;;9.30;5.15;;;9.20;99.90;;;;;;5067780;28;20036;-73
2023/04/27 08:32:16;;;;;;;6.38;4.50;;;9.20;99.90;;;;;;5065706;28;20051;-73
2023/04/27 08:34:43;;;;;;;7.45;3.67;;;9.20;99.90;;;;;;5068325;28;20044;-73
2023/04/27 08:37:09;;;;;;;8.27;4.10;;;9.30;99.90;;;;;;5058958;28;20056;-76
2023/04/27 08:39:35;;;;;;;8.80;4.55;;;9.40;99.90;;;;;;5064765;28;20068;-73
2023/04/27 08:42:00;;;;;;;7.35;4.03;;;9.50;99.90;;;;;;5081653;28;20052;-73
2023/04/27 08:44:26;;;;;;;6.45;3.60;;;9.60;99.90;;;;;;5081054;28;20706;-73
2023/04/27 08:46:52;;;;;;;9.15;4.00;;;9.60;99.90;;;;;;5066657;28;20048;-73
2023/04/27 08:49:17;;;;;;;5.25;3.63;;;9.70;98.90;;;;;;5064685;28;20037;-74
2023/04/27 08:51:43;;;;;;;5.80;4.20;;;9.80;98.00;;;;;;5063290;28;20056;-74
2023/04/27 08:54:09;;;;;;;7.45;3.58;;;9.80;97.60;;;;;;5063208;28;20036;-74
2023/04/27 08:56:38;;;;;;;5.18;3.38;;;9.90;96.50;;;;;;5068097;28;20040;-74
2023/04/27 08:59:13;;;;;;;6.53;3.72;;;10.00;93.70;;;;;;5064838;28;20052;-71
2023/04/27 09:01:44;;;;;;;6.18;3.67;;;10.00;92.60;;;;;;5055826;28;20597;-75
2023/04/27 09:04:10;;;;;;;5.60;3.38;;;10.00;92.90;;;;;;5061126;28;20059;-70
2023/04/27 09:06:36;;;;;;;5.35;3.53;;;10.10;91.30;;;;;;5065665;28;20131;-72
2023/04/27 09:09:03;;;;;;;6.43;3.55;;;10.10;90.70;;;;;;5063658;28;20070;-72
2023/04/27 09:11:31;;;;;;;4.18;3.10;;;10.10;91.10;;;;;;5066390;28;20119;-72
2023/04/27 09:13:58;;;;;;;5.50;3.63;;;10.20;90.50;;;;;;5066368;28;20094;-71
2023/04/27 09:16:25;;;;;;;6.45;3.80;;;10.30;90.10;;;;;;5059544;28;20414;-74
2023/04/27 09:18:56;;;;;;;6.50;3.53;;;10.40;90.40;;;;;;5064050;28;20040;-72
2023/04/27 09:21:23;;;;;;;6.38;3.50;;;10.40;90.20;;;;;;5059839;28;20125;-72
2023/04/27 09:23:50;;;;;;;;;;;10.50;89.40;;;;;;5063494;28;20951;-76
2023/04/27 09:26:23;;;;;;;7.25;3.90;;;10.50;89.00;;;;;;5060558;28;19920;-76
2023/04/27 09:28:50;;;;;;;9.05;4.15;;;10.60;90.50;;;;;;5042069;28;20049;-73
2023/04/27 09:31:16;;;;;;;5.97;3.55;;;10.70;90.10;;;;;;5063500;28;20048;-75
2023/04/27 09:33:44;;;;;;;6.05;3.45;;;10.80;87.90;;;;;;5059848;28;20044;-74
2023/04/27 09:36:13;;;;;;;6.57;3.20;;;10.80;85.90;;;;;;5061362;28;20041;-74
2023/04/27 09:38:38;;;;;;;5.57;3.38;;;10.80;82.30;;;;;;5064644;28;20560;-75
2023/04/27 09:41:05;;;;;;;4.97;3.30;;;10.80;81.70;;;;;;5062785;28;20115;-74
2023/04/27 09:43:31;;;;;;;4.93;3.10;;;10.90;81.70;;;;;;5055826;28;20594;-73
2023/04/27 09:45:57;;;;;;;7.68;3.38;;;11.00;80.60;;;;;;5059518;28;20044;-73
2023/04/27 09:48:25;;;;;;;6.37;3.27;;;11.00;80.30;;;;;;5064654;28;20529;-77
2023/04/27 09:50:51;;;;;;;7.70;3.70;;;11.10;76.80;;;;;;5064242;28;20051;-74
2023/04/27 09:53:32;;;;;;;5.97;3.70;;;11.00;76.30;;;;;;5073478;28;20433;-71
2023/04/27 09:56:21;;;;;;;5.88;3.80;;;11.20;77.50;;;;;;5066282;28;20334;-72
2023/04/27 09:58:50;;;;;;;6.03;3.90;;;11.20;76.00;;;;;;5065671;28;20056;-74
2023/04/27 10:01:34;;;;;;;5.57;3.70;;;11.30;77.60;;;;;;5062106;28;20048;-71
2023/04/27 10:04:19;;;;;;;8.65;4.38;;;11.30;76.50;;;;;;5062057;28;20084;-70
2023/04/27 10:07:06;;;;;;;9.23;4.30;;;11.40;77.30;;;;;;5062565;28;20056;-70
2023/04/27 10:09:48;;;;;;;9.73;4.10;;;11.50;77.10;;;;;;5066533;28;20503;-70
2023/04/27 10:12:13;;;;;;;7.20;4.53;;;11.60;78.30;;;;;;5063381;28;20033;-70
2023/04/27 10:14:54;;;;;;;6.45;4.10;;;11.70;80.10;;;;;;5059493;28;21516;-70
2023/04/27 10:17:28;;;;;;;8.38;4.22;;;11.80;79.40;;;;;;5056669;28;20073;-70
2023/04/27 10:20:16;;;;;;;9.65;4.60;;;11.90;77.00;;;;;;5063756;28;20048;-70
2023/04/27 10:22:44;;;;;;;7.32;4.20;;;11.70;73.60;;;;;;5059735;28;20189;-70
2023/04/27 10:25:23;;;;;;;5.95;4.18;;;11.70;74.80;;;;;;5064805;28;20044;-69
2023/04/27 10:28:00;;;;;;;7.35;4.60;;;11.70;73.30;;;;;;5066860;28;20585;-70
2023/04/27 10:30:32;;;;;;;7.63;4.45;;;11.70;70.70;;;;;;5048368;28;20040;-69
2023/04/27 10:33:03;;;;;;;6.30;4.60;;;11.70;71.70;;;;;;5066300;28;20102;-70
2023/04/27 10:35:40;;;;;;;5.78;4.20;;;11.70;70.20;;;;;;5060094;28;20043;-72
2023/04/27 10:38:07;;;;;;;;;;;11.70;70.10;;;;;;5063762;28;20110;-71
2023/04/27 10:40:36;;;;;;;10.30;4.50;;;11.80;69.40;;;;;;5064060;28;19931;-73
2023/04/27 10:43:29;;;;;;;7.25;4.45;;;11.80;70.00;;;;;;5054494;28;20076;-71
2023/04/27 10:46:09;;;;;;;8.45;4.53;;;11.90;70.40;;;;;;5066720;28;20059;-70
2023/04/27 10:48:35;;;;;;;6.45;4.45;;;11.90;71.10;;;;;;5067861;28;20514;-72
2023/04/27 10:51:02;;;;;;;8.70;4.60;;;12.10;71.30;;;;;;5066975;28;20068;-72
2023/04/27 10:53:36;;;;;;;7.35;4.85;;;12.10;71.00;;;;;;5066153;28;20093;-70
2023/04/27 10:56:05;;;;;;;8.38;4.40;;;12.10;68.90;;;;;;5054749;28;20044;-71
2023/04/27 10:58:33;;;;;;;9.30;4.90;;;12.10;70.10;;;;;;5066086;28;20433;-71
2023/04/27 11:00:58;;;;;;;;;;;12.10;70.40;;;;;;5065487;28;20483;-71
2023/04/27 11:03:24;;;;;;;7.70;5.05;;;12.00;68.80;;;;;;5070358;28;19927;-71
2023/04/27 11:06:01;;;;;;;7.47;4.70;;;12.00;71.70;;;;;;5070981;28;20467;-72
2023/04/27 11:08:27;;;;;;;10.18;4.38;;;12.10;71.60;;;;;;5064284;28;20119;-72
2023/04/27 11:10:52;;;;;;;8.38;4.90;;;12.10;71.50;;;;;;5060422;28;20047;-71
2023/04/27 11:13:20;;;;;;;7.75;4.90;;;12.20;71.40;;;;;;5063101;28;20036;-71
2023/04/27 11:15:49;;;;;;;;;;;12.30;71.00;;;;;;5063682;28;20614;-73
2023/04/27 11:18:17;;;;;;;6.97;4.57;;;12.40;69.90;;;;;;5068641;28;19920;-73
2023/04/27 11:20:48;;;;;;;6.47;4.65;;;12.40;69.30;;;;;;5064425;28;20036;-72
2023/04/27 11:23:29;;;;;;;5.13;4.28;;;12.40;68.20;;;;;;5064359;28;20044;-75
2023/04/27 11:25:55;;;;;;;8.35;4.95;;;12.50;67.30;;;;;;5068252;28;20106;-74
2023/04/27 11:28:24;;;;;;;8.13;4.93;;;12.60;67.70;;;;;;5068042;28;20093;-74
2023/04/27 11:30:57;;;;;;;8.70;4.22;;;12.60;67.30;;;;;;5067906;28;20109;-73
2023/04/27 11:33:23;;;;;;;6.97;4.30;;;12.60;67.30;;;;;;5067281;28;20040;-73
2023/04/27 11:35:48;;;;;;;7.30;4.40;;;12.60;66.80;;;;;;5065990;28;20032;-72
2023/04/27 11:38:18;;;;;;;9.27;4.65;;;12.60;66.40;;;;;;5060659;28;20047;-76
2023/04/27 11:40:58;;;;;;;10.85;4.90;;;12.60;65.10;;;;;;5062567;28;20392;-71
2023/04/27 11:43:26;;;;;;;8.77;4.63;;;12.60;64.90;;;;;;5062297;28;21016;-70
2023/04/27 11:45:53;;;;;;;7.13;4.75;;;12.60;65.60;;;;;;5071120;28;20051;-71
2023/04/27 11:48:21;;;;;;;7.47;4.65;;;12.60;64.80;;;;;;5068856;28;20049;-71
2023/04/27 11:50:48;;;;;;;7.07;4.40;;;12.70;65.20;;;;;;5061426;28;20056;-71
2023/04/27 11:53:13;;;;;;;7.63;4.60;;;12.70;64.00;;;;;;5067290;28;20392;-71
2023/04/27 11:55:40;;;;;;;7.78;4.72;;;12.70;63.80;;;;;;5076898;28;20040;-71
2023/04/27 11:58:13;;;;;;;6.07;4.38;;;12.80;63.30;;;;;;5063473;28;20040;-71
2023/04/27 12:00:38;;;;;;;8.40;4.63;;;12.80;63.30;;;;;;5069023;28;20052;-71
2023/04/27 12:03:04;;;;;;;6.55;4.78;;;12.80;63.80;;;;;;5067004;28;20029;-71
2023/04/27 12:05:30;;;;;;;7.05;4.70;;;12.80;63.50;;;;;;5066068;28;20706;-71
2023/04/27 12:07:56;;;;;;;6.35;4.47;;;12.80;63.20;;;;;;5067220;28;20037;-71
2023/04/27 12:10:21;;;;;;;6.40;4.40;;;12.80;62.90;;;;;;5063470;28;20099;-71
2023/04/27 12:12:47;;;;;;;6.30;4.50;;;12.90;62.60;;;;;;5067119;28;20052;-71
2023/04/27 12:15:13;;;;;;;6.82;4.68;;;12.80;61.60;;;;;;5061508;28;20055;-71
2023/04/27 12:17:38;;;;;;;7.10;5.00;;;12.80;62.20;;;;;;5066549;28;20041;-71
2023/04/27 12:20:05;;;;;;;6.38;4.90;;;12.80;62.00;;;;;;5057211;28;20064;-71
2023/04/27 12:22:31;;;;;;;7.93;4.60;;;12.80;61.80;;;;;;5065300;28;20125;-71
2023/04/27 12:24:56;;;;;;;6.82;4.25;;;12.90;61.50;;;;;;5066606;28;20040;-71
2023/04/27 12:27:22;;;;;;;8.60;4.90;;;13.00;61.50;;;;;;5067340;28;20049;-71
2023/04/27 12:29:48;;;;;;;6.10;4.60;;;13.00;61.60;;;;;;5062490;28;20137;-71
2023/04/27 12:32:13;;;;;;;6.63;4.53;;;13.10;61.90;;;;;;5064307;28;20049;-71
2023/04/27 12:34:39;;;;;;;6.57;4.15;;;13.10;61.60;;;;;;5063565;28;20123;-71
2023/04/27 12:37:05;;;;;;;6.45;4.25;;;13.10;62.00;;;;;;5065606;28;20428;-71
2023/04/27 12:39:31;;;;;;;7.90;4.82;;;13.30;61.60;;;;;;5063258;28;20048;-71
2023/04/27 12:41:57;;;;;;;6.25;4.57;;;13.30;61.30;;;;;;5069050;28;20125;-71
2023/04/27 12:44:26;;;;;;;6.95;4.55;;;13.30;60.20;;;;;;5076651;28;20177;-71